createdAt,value
2023-04-17T00:03:17.144Z,8.98
2023-04-17T00:08:10.007Z,8.97
2023-04-17T00:13:02.714Z,8.94
2023-04-17T00:17:55.738Z,8.94
2023-04-17T00:22:48.452Z,8.93
2023-04-17T00:27:42.015Z,8.91
2023-04-17T00:32:34.808Z,8.91
2023-04-17T00:37:27.548Z,8.90
2023-04-17T00:42:20.347Z,8.89
2023-04-17T00:47:14.250Z,8.88
2023-04-17T00:52:06.967Z,8.86
2023-04-17T01:02:29.068Z,8.82
2023-04-17T01:07:24.432Z,8.79
2023-04-17T01:12:21.162Z,8.76
2023-04-17T01:17:15.454Z,8.72
2023-04-17T01:22:08.895Z,8.60
2023-04-17T01:27:01.691Z,8.49
2023-04-17T01:31:54.524Z,8.41
2023-04-17T01:36:47.938Z,8.29
2023-04-17T01:41:40.654Z,8.16
2023-04-17T01:46:33.412Z,8.03
2023-04-17T01:51:26.131Z,7.91
2023-04-17T01:56:19.263Z,7.79
2023-04-17T02:01:12.146Z,7.65
2023-04-17T02:06:05.028Z,7.54
2023-04-17T02:10:57.765Z,7.45
2023-04-17T02:15:50.543Z,7.39
2023-04-17T02:20:43.327Z,7.33
2023-04-17T02:25:36.374Z,7.25
2023-04-17T02:30:29.796Z,7.17
2023-04-17T02:35:24.084Z,7.07
2023-04-17T02:40:17.315Z,6.98
2023-04-17T02:45:10.217Z,6.87
2023-04-17T02:50:03.131Z,6.77
2023-04-17T02:55:00.109Z,6.70
2023-04-17T02:59:53.614Z,6.60
2023-04-17T03:04:49.311Z,6.52
2023-04-17T03:09:42.932Z,6.45
2023-04-17T03:14:36.081Z,6.35
2023-04-17T03:19:28.799Z,6.26
2023-04-17T03:24:21.653Z,6.17
2023-04-17T03:29:14.613Z,6.07
2023-04-17T03:34:07.920Z,6.01
2023-04-17T03:39:00.644Z,5.96
2023-04-17T03:43:53.407Z,5.97
2023-04-17T03:48:46.213Z,5.98
2023-04-17T03:53:39.063Z,5.95
2023-04-17T03:58:34.856Z,5.97
2023-04-17T04:03:32.261Z,6.02
2023-04-17T04:08:25.729Z,6.07
2023-04-17T04:13:20.369Z,6.17
2023-04-17T04:18:18.211Z,6.37
2023-04-17T04:23:11.040Z,6.63
2023-04-17T04:28:05.763Z,6.68
2023-04-17T04:33:01.444Z,6.80
2023-04-17T04:37:55.033Z,7.01
2023-04-17T04:42:49.787Z,7.21
2023-04-17T04:47:49.875Z,7.38
2023-04-17T04:52:42.796Z,7.51
2023-04-17T04:57:47.444Z,7.67
2023-04-17T05:02:40.726Z,7.91
2023-04-17T05:07:34.837Z,8.16
2023-04-17T05:12:28.075Z,8.46
2023-04-17T05:17:20.986Z,8.72
2023-04-17T05:22:13.890Z,8.88
2023-04-17T05:27:20.250Z,9.08
2023-04-17T05:32:14.056Z,9.46
2023-04-17T05:37:15.221Z,9.86
2023-04-17T05:42:08.045Z,10.17
2023-04-17T05:47:01.068Z,10.30
2023-04-17T05:51:54.327Z,10.44
2023-04-17T05:56:47.521Z,10.46
2023-04-17T06:01:41.177Z,10.58
2023-04-17T06:06:33.953Z,10.60
2023-04-17T06:11:27.535Z,10.57
2023-04-17T06:16:20.564Z,10.61
2023-04-17T06:21:14.097Z,10.57
2023-04-17T06:26:06.919Z,10.66
2023-04-17T06:31:00.762Z,10.81
2023-04-17T06:35:53.575Z,10.84
2023-04-17T06:40:52.966Z,10.96
2023-04-17T06:45:46.166Z,11.23
2023-04-17T06:50:38.910Z,11.62
2023-04-17T06:55:32.362Z,11.49
2023-04-17T07:00:25.159Z,11.84
2023-04-17T07:05:17.919Z,12.08
2023-04-17T07:10:10.720Z,12.13
2023-04-17T07:15:03.463Z,12.03
2023-04-17T07:19:56.350Z,11.96
2023-04-17T07:24:49.061Z,11.90
2023-04-17T07:29:41.832Z,11.75
2023-04-17T07:34:34.627Z,11.61
2023-04-17T07:39:31.625Z,11.38
2023-04-17T07:44:24.350Z,11.21
2023-04-17T07:49:17.435Z,11.32
2023-04-17T07:54:10.577Z,11.47
2023-04-17T07:59:03.828Z,11.70
2023-04-17T08:03:56.737Z,11.95
2023-04-17T08:08:49.677Z,12.13
2023-04-17T08:13:42.405Z,12.45
2023-04-17T08:18:37.919Z,12.93
2023-04-17T08:23:31.150Z,13.75
2023-04-17T08:28:24.633Z,13.97
2023-04-17T08:33:18.633Z,14.73
2023-04-17T08:38:14.120Z,15.06
2023-04-17T08:43:07.412Z,15.63
2023-04-17T08:48:00.430Z,15.70
2023-04-17T08:52:53.232Z,14.98
2023-04-17T08:58:06.234Z,14.32
2023-04-17T09:03:00.120Z,13.92
2023-04-17T09:08:15.905Z,13.66
2023-04-17T09:13:09.114Z,13.54
2023-04-17T09:18:02.346Z,13.61
2023-04-17T09:23:00.319Z,13.93
2023-04-17T09:27:53.184Z,14.35
2023-04-17T09:32:46.270Z,14.67
2023-04-17T09:37:50.209Z,14.57
2023-04-17T09:42:55.302Z,14.44
2023-04-17T09:47:48.911Z,14.56
2023-04-17T09:52:41.670Z,14.69
2023-04-17T09:57:34.770Z,14.66
2023-04-17T10:02:28.258Z,14.57
2023-04-17T10:07:21.148Z,14.70
2023-04-17T10:12:19.255Z,14.52
2023-04-17T10:17:32.789Z,14.42
2023-04-17T10:22:25.513Z,14.57
2023-04-17T10:27:27.255Z,15.52
2023-04-17T10:32:20.288Z,17.36
2023-04-17T10:37:15.579Z,17.80
2023-04-17T10:42:08.502Z,17.93
2023-04-17T10:47:06.980Z,17.54
2023-04-17T10:51:59.719Z,17.17
2023-04-17T10:56:55.929Z,17.01
2023-04-17T11:01:48.629Z,16.81
2023-04-17T11:06:42.188Z,16.25
2023-04-17T11:11:44.087Z,15.59
2023-04-17T11:16:42.223Z,14.96
2023-04-17T11:21:34.975Z,14.57
2023-04-17T11:26:27.702Z,14.27
2023-04-17T11:31:21.581Z,14.10
2023-04-17T11:36:15.084Z,14.02
2023-04-17T11:41:10.144Z,14.02
2023-04-17T11:46:03.273Z,14.01
2023-04-17T11:51:01.258Z,14.04
2023-04-17T11:56:13.147Z,14.25
2023-04-17T12:01:06.727Z,14.65
2023-04-17T12:06:00.940Z,15.27
2023-04-17T12:10:53.668Z,15.73
2023-04-17T12:15:46.399Z,15.86
2023-04-17T12:20:39.605Z,16.13
2023-04-17T12:25:33.255Z,16.45
2023-04-17T12:30:29.543Z,16.52
2023-04-17T12:35:23.189Z,16.39
2023-04-17T12:40:17.974Z,16.49
2023-04-17T12:45:11.384Z,16.39
2023-04-17T12:50:04.233Z,16.27
2023-04-17T12:55:00.009Z,16.11
2023-04-17T12:59:52.767Z,16.04
2023-04-17T13:04:45.604Z,16.12
2023-04-17T13:09:38.734Z,16.18
2023-04-17T13:14:31.554Z,16.29
2023-04-17T13:19:24.344Z,16.18
2023-04-17T13:24:17.050Z,15.98
2023-04-17T13:29:09.940Z,15.83
2023-04-17T13:34:03.196Z,15.70
2023-04-17T13:38:55.943Z,15.80
2023-04-17T13:43:48.636Z,15.83
2023-04-17T13:48:41.316Z,15.69
2023-04-17T13:53:33.971Z,15.51
2023-04-17T13:58:26.644Z,15.38
2023-04-17T14:03:20.421Z,15.29
2023-04-17T14:08:13.297Z,15.31
2023-04-17T14:13:07.229Z,15.31
2023-04-17T14:18:00.203Z,15.26
2023-04-17T14:22:54.360Z,15.32
2023-04-17T14:27:47.074Z,15.42
2023-04-17T14:32:39.902Z,15.39
2023-04-17T14:37:32.913Z,15.35
2023-04-17T14:42:26.049Z,15.39
2023-04-17T14:47:19.596Z,15.32
2023-04-17T14:52:12.789Z,14.99
2023-04-17T14:57:05.792Z,14.75
2023-04-17T15:01:58.613Z,14.69
2023-04-17T15:06:51.370Z,14.61
2023-04-17T15:11:44.052Z,14.45
2023-04-17T15:16:36.837Z,14.34
2023-04-17T15:21:30.029Z,14.35
2023-04-17T15:26:23.790Z,14.30
2023-04-17T15:31:16.470Z,14.35
2023-04-17T15:36:09.224Z,14.42
2023-04-17T15:41:03.702Z,14.50
2023-04-17T15:45:56.575Z,14.54
2023-04-17T15:50:49.287Z,14.53
2023-04-17T15:55:42.349Z,14.52
2023-04-17T16:00:35.261Z,14.43
2023-04-17T16:05:27.956Z,14.25
2023-04-17T16:10:20.823Z,14.03
2023-04-17T16:15:14.980Z,13.86
2023-04-17T16:20:07.994Z,13.73
2023-04-17T16:25:01.836Z,13.58
2023-04-17T16:29:54.724Z,13.46
2023-04-17T16:34:47.808Z,13.26
2023-04-17T16:39:40.490Z,13.05
2023-04-17T16:44:33.584Z,12.87
2023-04-17T16:49:26.259Z,12.73
2023-04-17T16:54:21.704Z,12.60
2023-04-17T16:59:14.565Z,12.46
2023-04-17T17:04:09.032Z,12.34
2023-04-17T17:09:02.537Z,12.22
2023-04-17T17:13:55.264Z,12.12
2023-04-17T17:18:49.112Z,12.02
2023-04-17T17:23:42.215Z,11.95
2023-04-17T17:28:35.430Z,11.88
2023-04-17T17:33:28.173Z,11.79
2023-04-17T17:38:20.879Z,11.71
2023-04-17T17:43:13.621Z,11.64
2023-04-17T17:48:06.925Z,11.56
2023-04-17T17:53:00.050Z,11.48
2023-04-17T17:57:52.767Z,11.40
2023-04-17T18:02:45.782Z,11.36
2023-04-17T18:07:41.041Z,11.33
2023-04-17T18:12:34.286Z,11.30
2023-04-17T18:17:27.015Z,11.25
2023-04-17T18:22:20.814Z,11.22
2023-04-17T18:27:14.044Z,11.17
2023-04-17T18:32:06.708Z,11.11
2023-04-17T18:37:00.624Z,11.07
2023-04-17T18:41:53.329Z,11.02
2023-04-17T18:46:46.054Z,10.96
2023-04-17T18:51:39.396Z,10.91
2023-04-17T18:56:32.575Z,10.88
2023-04-17T19:01:25.409Z,10.83
2023-04-17T19:06:18.175Z,10.79
2023-04-17T19:11:11.039Z,10.78
2023-04-17T19:16:03.853Z,10.76
2023-04-17T19:20:56.720Z,10.73
2023-04-17T19:25:55.118Z,10.70
2023-04-17T19:30:47.876Z,10.65
2023-04-17T19:35:41.268Z,10.62
2023-04-17T19:40:34.419Z,10.58
2023-04-17T19:45:27.191Z,10.56
2023-04-17T19:50:19.939Z,10.51
2023-04-17T19:55:12.718Z,10.50
2023-04-17T20:00:05.935Z,10.45
2023-04-17T20:05:05.428Z,10.41
2023-04-17T20:09:58.162Z,10.36
2023-04-17T20:14:52.855Z,10.31
2023-04-17T20:19:46.073Z,10.28
2023-04-17T20:24:38.821Z,10.25
2023-04-17T20:29:32.181Z,10.20
2023-04-17T20:34:25.756Z,10.16
2023-04-17T20:39:18.590Z,10.13
2023-04-17T20:44:12.209Z,10.10
2023-04-17T20:49:05.230Z,10.07
2023-04-17T20:53:58.002Z,10.05
2023-04-17T20:58:50.785Z,10.02
2023-04-17T21:03:44.125Z,9.99
2023-04-17T21:08:37.095Z,9.92
2023-04-17T21:13:30.838Z,9.90
2023-04-17T21:18:23.875Z,9.86
2023-04-17T21:23:17.288Z,9.82
2023-04-17T21:28:10.067Z,9.80
2023-04-17T21:33:02.812Z,9.80
2023-04-17T21:37:55.670Z,9.78
2023-04-17T21:42:48.360Z,9.74
2023-04-17T21:47:41.082Z,9.67
2023-04-17T21:52:33.808Z,9.58
2023-04-17T21:57:26.478Z,9.55
2023-04-17T22:02:19.243Z,9.52
2023-04-17T22:07:12.006Z,9.52
2023-04-17T22:12:14.417Z,9.51
2023-04-17T22:17:07.302Z,9.48
2023-04-17T22:22:36.728Z,9.45
2023-04-17T22:28:24.589Z,9.45
2023-04-17T22:34:12.988Z,9.42
2023-04-17T22:40:01.287Z,9.39
2023-04-17T22:45:49.504Z,9.37
2023-04-17T22:51:37.926Z,9.32
2023-04-17T22:57:25.892Z,9.27
2023-04-17T23:03:14.064Z,9.24
2023-04-17T23:09:02.603Z,9.23
2023-04-17T23:14:13.592Z,9.23
2023-04-17T23:19:06.504Z,9.21
2023-04-17T23:23:59.241Z,9.22
2023-04-17T23:28:51.951Z,9.23
2023-04-17T23:33:44.613Z,9.24
2023-04-17T23:38:37.301Z,9.23
2023-04-17T23:43:30.349Z,9.20
2023-04-17T23:48:23.186Z,9.19
2023-04-17T23:53:15.979Z,9.15
2023-04-17T23:58:09.102Z,9.11
